sensor_id;sensor_type;location;lat;lon;timestamp;temperature;humidity
71523;HTU21D;59343;51.102;5.884;2023-06-14T00:00:14;22.55;45.09
71523;HTU21D;59343;51.102;5.884;2023-06-14T00:02:40;22.53;44.95
71523;HTU21D;59343;51.102;5.884;2023-06-14T00:05:07;22.46;45.37
71523;HTU21D;59343;51.102;5.884;2023-06-14T00:07:38;22.39;45.40
71523;HTU21D;59343;51.102;5.884;2023-06-14T00:10:10;22.33;45.25
71523;HTU21D;59343;51.102;5.884;2023-06-14T00:12:37;22.27;45.26
71523;HTU21D;59343;51.102;5.884;2023-06-14T00:15:04;22.22;45.70
71523;HTU21D;59343;51.102;5.884;2023-06-14T00:17:30;22.17;45.67
71523;HTU21D;59343;51.102;5.884;2023-06-14T00:20:02;22.10;46.02
71523;HTU21D;59343;51.102;5.884;2023-06-14T00:22:30;22.07;46.30
71523;HTU21D;59343;51.102;5.884;2023-06-14T00:24:57;22.06;46.44
71523;HTU21D;59343;51.102;5.884;2023-06-14T00:27:23;22.03;46.57
71523;HTU21D;59343;51.102;5.884;2023-06-14T00:29:50;21.98;46.67
71523;HTU21D;59343;51.102;5.884;2023-06-14T00:32:17;21.92;46.60
71523;HTU21D;59343;51.102;5.884;2023-06-14T00:34:43;21.82;46.71
71523;HTU21D;59343;51.102;5.884;2023-06-14T00:37:09;21.78;46.85
71523;HTU21D;59343;51.102;5.884;2023-06-14T00:39:35;21.77;46.70
71523;HTU21D;59343;51.102;5.884;2023-06-14T00:42:01;21.72;46.83
71523;HTU21D;59343;51.102;5.884;2023-06-14T00:44:27;21.63;47.15
71523;HTU21D;59343;51.102;5.884;2023-06-14T00:46:53;21.57;47.18
71523;HTU21D;59343;51.102;5.884;2023-06-14T00:49:23;21.54;47.34
71523;HTU21D;59343;51.102;5.884;2023-06-14T00:51:50;21.53;47.28
71523;HTU21D;59343;51.102;5.884;2023-06-14T00:54:18;21.49;47.38
71523;HTU21D;59343;51.102;5.884;2023-06-14T00:56:44;21.47;47.67
71523;HTU21D;59343;51.102;5.884;2023-06-14T00:59:11;21.44;47.70
71523;HTU21D;59343;51.102;5.884;2023-06-14T01:01:39;21.39;47.62
71523;HTU21D;59343;51.102;5.884;2023-06-14T01:04:08;21.34;47.85
71523;HTU21D;59343;51.102;5.884;2023-06-14T01:06:50;21.31;48.12
71523;HTU21D;59343;51.102;5.884;2023-06-14T01:09:48;21.28;48.09
71523;HTU21D;59343;51.102;5.884;2023-06-14T01:12:31;21.24;48.16
71523;HTU21D;59343;51.102;5.884;2023-06-14T01:14:59;21.20;48.17
71523;HTU21D;59343;51.102;5.884;2023-06-14T01:17:26;21.16;47.84
71523;HTU21D;59343;51.102;5.884;2023-06-14T01:19:52;21.08;47.99
71523;HTU21D;59343;51.102;5.884;2023-06-14T01:22:27;21.10;48.51
71523;HTU21D;59343;51.102;5.884;2023-06-14T01:24:54;21.10;48.28
71523;HTU21D;59343;51.102;5.884;2023-06-14T01:27:25;21.10;47.92
71523;HTU21D;59343;51.102;5.884;2023-06-14T01:29:55;21.10;48.45
71523;HTU21D;59343;51.102;5.884;2023-06-14T01:32:27;21.10;48.60
71523;HTU21D;59343;51.102;5.884;2023-06-14T01:34:55;21.10;49.08
71523;HTU21D;59343;51.102;5.884;2023-06-14T01:37:21;21.04;48.72
71523;HTU21D;59343;51.102;5.884;2023-06-14T01:39:48;21.01;48.83
71523;HTU21D;59343;51.102;5.884;2023-06-14T01:42:19;20.95;48.75
71523;HTU21D;59343;51.102;5.884;2023-06-14T01:44:47;20.93;48.82
71523;HTU21D;59343;51.102;5.884;2023-06-14T01:47:14;20.90;48.95
71523;HTU21D;59343;51.102;5.884;2023-06-14T01:49:40;20.84;48.95
71523;HTU21D;59343;51.102;5.884;2023-06-14T01:52:08;20.80;48.93
71523;HTU21D;59343;51.102;5.884;2023-06-14T01:54:35;20.79;48.93
71523;HTU21D;59343;51.102;5.884;2023-06-14T01:57:03;20.77;49.15
71523;HTU21D;59343;51.102;5.884;2023-06-14T01:59:29;20.76;49.47
71523;HTU21D;59343;51.102;5.884;2023-06-14T02:01:56;20.71;49.72
71523;HTU21D;59343;51.102;5.884;2023-06-14T02:04:22;20.69;49.69
71523;HTU21D;59343;51.102;5.884;2023-06-14T02:06:48;20.66;49.98
71523;HTU21D;59343;51.102;5.884;2023-06-14T02:09:14;20.64;49.83
71523;HTU21D;59343;51.102;5.884;2023-06-14T02:11:40;20.59;50.01
71523;HTU21D;59343;51.102;5.884;2023-06-14T02:14:06;20.57;50.22
71523;HTU21D;59343;51.102;5.884;2023-06-14T02:16:32;20.55;50.45
71523;HTU21D;59343;51.102;5.884;2023-06-14T02:19:01;20.55;50.14
71523;HTU21D;59343;51.102;5.884;2023-06-14T02:21:27;20.54;49.98
71523;HTU21D;59343;51.102;5.884;2023-06-14T02:23:53;20.50;50.05
71523;HTU21D;59343;51.102;5.884;2023-06-14T02:26:20;20.47;49.89
71523;HTU21D;59343;51.102;5.884;2023-06-14T02:28:46;20.40;49.78
71523;HTU21D;59343;51.102;5.884;2023-06-14T02:31:11;20.36;49.89
71523;HTU21D;59343;51.102;5.884;2023-06-14T02:33:38;20.33;50.14
71523;HTU21D;59343;51.102;5.884;2023-06-14T02:36:04;20.30;50.72
71523;HTU21D;59343;51.102;5.884;2023-06-14T02:38:33;20.27;50.69
71523;HTU21D;59343;51.102;5.884;2023-06-14T02:40:59;20.24;50.47
71523;HTU21D;59343;51.102;5.884;2023-06-14T02:43:29;20.20;50.86
71523;HTU21D;59343;51.102;5.884;2023-06-14T02:45:55;20.20;51.14
71523;HTU21D;59343;51.102;5.884;2023-06-14T02:48:22;20.18;51.11
71523;HTU21D;59343;51.102;5.884;2023-06-14T02:50:48;20.16;51.15
71523;HTU21D;59343;51.102;5.884;2023-06-14T02:53:14;20.11;51.28
71523;HTU21D;59343;51.102;5.884;2023-06-14T02:55:40;20.09;51.27
71523;HTU21D;59343;51.102;5.884;2023-06-14T02:58:06;20.05;51.36
71523;HTU21D;59343;51.102;5.884;2023-06-14T03:00:33;20.00;51.14
71523;HTU21D;59343;51.102;5.884;2023-06-14T03:03:01;19.96;50.95
71523;HTU21D;59343;51.102;5.884;2023-06-14T03:05:27;19.91;50.95
71523;HTU21D;59343;51.102;5.884;2023-06-14T03:07:54;19.94;51.19
71523;HTU21D;59343;51.102;5.884;2023-06-14T03:10:20;19.91;51.67
71523;HTU21D;59343;51.102;5.884;2023-06-14T03:12:49;19.92;51.91
71523;HTU21D;59343;51.102;5.884;2023-06-14T03:15:17;19.90;52.07
71523;HTU21D;59343;51.102;5.884;2023-06-14T03:17:46;19.89;51.98
71523;HTU21D;59343;51.102;5.884;2023-06-14T03:20:15;19.88;52.27
71523;HTU21D;59343;51.102;5.884;2023-06-14T03:22:41;19.84;52.56
71523;HTU21D;59343;51.102;5.884;2023-06-14T03:25:11;19.82;52.75
71523;HTU21D;59343;51.102;5.884;2023-06-14T03:27:39;19.79;52.30
71523;HTU21D;59343;51.102;5.884;2023-06-14T03:30:06;19.75;51.95
71523;HTU21D;59343;51.102;5.884;2023-06-14T03:32:33;19.73;51.80
71523;HTU21D;59343;51.102;5.884;2023-06-14T03:34:59;19.72;52.27
71523;HTU21D;59343;51.102;5.884;2023-06-14T03:37:25;19.71;52.51
71523;HTU21D;59343;51.102;5.884;2023-06-14T03:39:52;19.69;52.15
71523;HTU21D;59343;51.102;5.884;2023-06-14T03:42:21;19.69;52.40
71523;HTU21D;59343;51.102;5.884;2023-06-14T03:44:48;19.69;52.69
71523;HTU21D;59343;51.102;5.884;2023-06-14T03:47:14;19.67;52.29
71523;HTU21D;59343;51.102;5.884;2023-06-14T03:49:41;19.62;52.54
71523;HTU21D;59343;51.102;5.884;2023-06-14T03:52:07;19.63;52.38
71523;HTU21D;59343;51.102;5.884;2023-06-14T03:54:35;19.60;52.26
71523;HTU21D;59343;51.102;5.884;2023-06-14T03:57:01;19.53;52.31
71523;HTU21D;59343;51.102;5.884;2023-06-14T03:59:27;19.52;52.44
71523;HTU21D;59343;51.102;5.884;2023-06-14T04:01:54;19.53;52.52
71523;HTU21D;59343;51.102;5.884;2023-06-14T04:04:20;19.54;52.56
71523;HTU21D;59343;51.102;5.884;2023-06-14T04:06:47;19.50;52.46
71523;HTU21D;59343;51.102;5.884;2023-06-14T04:09:14;19.51;52.57
71523;HTU21D;59343;51.102;5.884;2023-06-14T05:06:29;22.03;47.23
71523;HTU21D;59343;51.102;5.884;2023-06-14T05:08:56;22.68;47.57
71523;HTU21D;59343;51.102;5.884;2023-06-14T05:11:23;24.17;45.14
71523;HTU21D;59343;51.102;5.884;2023-06-14T05:13:50;25.69;41.56
71523;HTU21D;59343;51.102;5.884;2023-06-14T05:16:16;26.96;38.85
71523;HTU21D;59343;51.102;5.884;2023-06-14T05:18:45;28.00;36.84
71523;HTU21D;59343;51.102;5.884;2023-06-14T05:21:13;28.86;35.23
71523;HTU21D;59343;51.102;5.884;2023-06-14T05:23:45;29.58;34.05
71523;HTU21D;59343;51.102;5.884;2023-06-14T05:26:11;30.06;32.99
71523;HTU21D;59343;51.102;5.884;2023-06-14T05:28:37;30.64;31.99
71523;HTU21D;59343;51.102;5.884;2023-06-14T05:31:03;31.09;31.44
71523;HTU21D;59343;51.102;5.884;2023-06-14T05:33:29;31.64;30.58
71523;HTU21D;59343;51.102;5.884;2023-06-14T05:35:55;31.75;29.96
71523;HTU21D;59343;51.102;5.884;2023-06-14T05:38:21;31.88;29.97
71523;HTU21D;59343;51.102;5.884;2023-06-14T05:40:47;32.04;29.65
71523;HTU21D;59343;51.102;5.884;2023-06-14T05:43:13;32.19;29.37
71523;HTU21D;59343;51.102;5.884;2023-06-14T05:45:39;32.45;29.02
71523;HTU21D;59343;51.102;5.884;2023-06-14T05:48:05;32.46;28.73
71523;HTU21D;59343;51.102;5.884;2023-06-14T05:50:49;32.71;28.55
71523;HTU21D;59343;51.102;5.884;2023-06-14T05:53:19;32.70;28.23
71523;HTU21D;59343;51.102;5.884;2023-06-14T05:55:45;32.89;28.15
71523;HTU21D;59343;51.102;5.884;2023-06-14T05:58:11;33.22;27.68
71523;HTU21D;59343;51.102;5.884;2023-06-14T06:00:39;33.73;27.36
71523;HTU21D;59343;51.102;5.884;2023-06-14T06:03:07;34.35;26.64
71523;HTU21D;59343;51.102;5.884;2023-06-14T06:05:37;34.79;26.17
71523;HTU21D;59343;51.102;5.884;2023-06-14T06:08:04;34.78;25.49
71523;HTU21D;59343;51.102;5.884;2023-06-14T06:10:34;34.29;26.54
71523;HTU21D;59343;51.102;5.884;2023-06-14T06:13:00;34.15;26.24
71523;HTU21D;59343;51.102;5.884;2023-06-14T06:15:26;33.80;26.62
71523;HTU21D;59343;51.102;5.884;2023-06-14T06:17:52;33.15;26.90
71523;HTU21D;59343;51.102;5.884;2023-06-14T06:20:19;32.17;27.80
71523;HTU21D;59343;51.102;5.884;2023-06-14T06:22:54;31.19;29.12
71523;HTU21D;59343;51.102;5.884;2023-06-14T06:25:27;30.50;31.12
71523;HTU21D;59343;51.102;5.884;2023-06-14T06:27:54;30.45;31.29
71523;HTU21D;59343;51.102;5.884;2023-06-14T06:30:26;30.49;30.70
71523;HTU21D;59343;51.102;5.884;2023-06-14T06:32:57;30.12;30.66
71523;HTU21D;59343;51.102;5.884;2023-06-14T06:35:23;29.59;31.75
71523;HTU21D;59343;51.102;5.884;2023-06-14T06:37:55;29.30;32.86
71523;HTU21D;59343;51.102;5.884;2023-06-14T06:40:25;29.75;32.06
71523;HTU21D;59343;51.102;5.884;2023-06-14T06:42:51;30.38;30.88
71523;HTU21D;59343;51.102;5.884;2023-06-14T06:45:19;30.84;30.09
71523;HTU21D;59343;51.102;5.884;2023-06-14T06:47:45;30.40;30.71
71523;HTU21D;59343;51.102;5.884;2023-06-14T06:50:18;29.81;31.35
71523;HTU21D;59343;51.102;5.884;2023-06-14T06:52:56;29.26;31.73
71523;HTU21D;59343;51.102;5.884;2023-06-14T06:55:23;28.65;32.31
71523;HTU21D;59343;51.102;5.884;2023-06-14T06:57:49;28.08;32.89
71523;HTU21D;59343;51.102;5.884;2023-06-14T07:00:18;27.61;33.46
71523;HTU21D;59343;51.102;5.884;2023-06-14T07:02:45;27.30;34.24
71523;HTU21D;59343;51.102;5.884;2023-06-14T07:05:12;26.99;34.56
71523;HTU21D;59343;51.102;5.884;2023-06-14T07:07:38;26.78;35.06
71523;HTU21D;59343;51.102;5.884;2023-06-14T07:10:07;26.52;35.40
71523;HTU21D;59343;51.102;5.884;2023-06-14T07:12:37;26.43;35.96
71523;HTU21D;59343;51.102;5.884;2023-06-14T07:15:08;26.39;35.95
71523;HTU21D;59343;51.102;5.884;2023-06-14T07:17:46;26.36;36.34
71523;HTU21D;59343;51.102;5.884;2023-06-14T07:20:18;26.30;36.10
71523;HTU21D;59343;51.102;5.884;2023-06-14T07:22:44;26.16;35.85
71523;HTU21D;59343;51.102;5.884;2023-06-14T07:25:18;25.96;36.24
71523;HTU21D;59343;51.102;5.884;2023-06-14T07:27:54;25.90;37.00
71523;HTU21D;59343;51.102;5.884;2023-06-14T07:30:27;25.88;36.96
71523;HTU21D;59343;51.102;5.884;2023-06-14T07:33:02;25.84;36.83
71523;HTU21D;59343;51.102;5.884;2023-06-14T07:35:32;25.89;36.98
71523;HTU21D;59343;51.102;5.884;2023-06-14T07:38:02;25.95;36.96
71523;HTU21D;59343;51.102;5.884;2023-06-14T07:40:57;25.97;36.02
71523;HTU21D;59343;51.102;5.884;2023-06-14T07:43:29;25.94;36.08
71523;HTU21D;59343;51.102;5.884;2023-06-14T07:46:14;25.92;36.39
71523;HTU21D;59343;51.102;5.884;2023-06-14T07:48:48;25.93;36.40
71523;HTU21D;59343;51.102;5.884;2023-06-14T07:51:22;25.96;36.31
71523;HTU21D;59343;51.102;5.884;2023-06-14T07:54:08;25.97;36.34
71523;HTU21D;59343;51.102;5.884;2023-06-14T07:56:44;26.04;36.24
71523;HTU21D;59343;51.102;5.884;2023-06-14T07:59:22;26.06;36.50
71523;HTU21D;59343;51.102;5.884;2023-06-14T08:02:00;26.08;36.40
71523;HTU21D;59343;51.102;5.884;2023-06-14T08:04:29;26.10;36.30
71523;HTU21D;59343;51.102;5.884;2023-06-14T08:06:56;26.12;36.40
71523;HTU21D;59343;51.102;5.884;2023-06-14T08:09:31;26.15;36.27
71523;HTU21D;59343;51.102;5.884;2023-06-14T08:12:00;26.15;36.21
71523;HTU21D;59343;51.102;5.884;2023-06-14T08:14:27;26.17;36.64
71523;HTU21D;59343;51.102;5.884;2023-06-14T08:16:54;26.22;36.64
71523;HTU21D;59343;51.102;5.884;2023-06-14T08:19:21;26.26;36.19
71523;HTU21D;59343;51.102;5.884;2023-06-14T08:21:58;26.19;35.63
71523;HTU21D;59343;51.102;5.884;2023-06-14T08:24:24;26.15;35.56
71523;HTU21D;59343;51.102;5.884;2023-06-14T08:26:54;26.16;35.63
71523;HTU21D;59343;51.102;5.884;2023-06-14T08:29:23;26.18;35.34
71523;HTU21D;59343;51.102;5.884;2023-06-14T08:31:58;26.25;35.34
71523;HTU21D;59343;51.102;5.884;2023-06-14T08:34:28;26.30;35.54
71523;HTU21D;59343;51.102;5.884;2023-06-14T08:36:55;26.36;35.76
71523;HTU21D;59343;51.102;5.884;2023-06-14T08:39:21;26.37;35.12
71523;HTU21D;59343;51.102;5.884;2023-06-14T08:41:48;26.37;34.90
71523;HTU21D;59343;51.102;5.884;2023-06-14T08:44:17;26.40;35.30
71523;HTU21D;59343;51.102;5.884;2023-06-14T08:46:43;26.42;35.40
71523;HTU21D;59343;51.102;5.884;2023-06-14T08:49:12;26.45;35.40
71523;HTU21D;59343;51.102;5.884;2023-06-14T08:51:38;26.49;35.08
71523;HTU21D;59343;51.102;5.884;2023-06-14T08:54:06;26.49;35.02
71523;HTU21D;59343;51.102;5.884;2023-06-14T08:56:32;26.47;34.96
71523;HTU21D;59343;51.102;5.884;2023-06-14T08:59:00;26.39;34.63
71523;HTU21D;59343;51.102;5.884;2023-06-14T09:01:37;26.34;34.57
71523;HTU21D;59343;51.102;5.884;2023-06-14T09:04:06;26.25;34.53
71523;HTU21D;59343;51.102;5.884;2023-06-14T09:06:32;26.13;34.79
71523;HTU21D;59343;51.102;5.884;2023-06-14T09:08:59;26.15;35.15
71523;HTU21D;59343;51.102;5.884;2023-06-14T15:38:55;28.97;29.72
71523;HTU21D;59343;51.102;5.884;2023-06-14T15:41:21;28.87;29.75
71523;HTU21D;59343;51.102;5.884;2023-06-14T15:45:16;28.71;29.70
71523;HTU21D;59343;51.102;5.884;2023-06-14T15:47:45;28.65;30.07
71523;HTU21D;59343;51.102;5.884;2023-06-14T15:53:17;28.55;30.55
71523;HTU21D;59343;51.102;5.884;2023-06-14T15:55:46;28.46;30.51
71523;HTU21D;59343;51.102;5.884;2023-06-14T15:58:21;28.43;30.82
71523;HTU21D;59343;51.102;5.884;2023-06-14T16:00:50;28.38;30.83
71523;HTU21D;59343;51.102;5.884;2023-06-14T16:03:20;28.33;31.02
71523;HTU21D;59343;51.102;5.884;2023-06-14T16:05:46;28.40;31.44
71523;HTU21D;59343;51.102;5.884;2023-06-14T16:08:14;28.44;31.29
71523;HTU21D;59343;51.102;5.884;2023-06-14T16:10:41;28.43;30.87
71523;HTU21D;59343;51.102;5.884;2023-06-14T16:13:10;28.42;30.95
71523;HTU21D;59343;51.102;5.884;2023-06-14T16:15:39;28.48;31.12
71523;HTU21D;59343;51.102;5.884;2023-06-14T16:18:06;28.54;31.14
71523;HTU21D;59343;51.102;5.884;2023-06-14T16:20:32;28.57;31.31
71523;HTU21D;59343;51.102;5.884;2023-06-14T16:22:58;28.60;31.41
71523;HTU21D;59343;51.102;5.884;2023-06-14T16:25:34;28.65;31.80
71523;HTU21D;59343;51.102;5.884;2023-06-14T16:28:33;28.67;31.37
71523;HTU21D;59343;51.102;5.884;2023-06-14T16:31:13;28.71;31.25
71523;HTU21D;59343;51.102;5.884;2023-06-14T16:33:48;28.56;31.19
71523;HTU21D;59343;51.102;5.884;2023-06-14T16:36:27;28.43;31.36
71523;HTU21D;59343;51.102;5.884;2023-06-14T16:38:53;28.39;31.64
71523;HTU21D;59343;51.102;5.884;2023-06-14T16:41:23;28.27;31.73
71523;HTU21D;59343;51.102;5.884;2023-06-14T16:43:49;28.09;31.90
71523;HTU21D;59343;51.102;5.884;2023-06-14T16:46:32;27.94;32.02
71523;HTU21D;59343;51.102;5.884;2023-06-14T16:49:29;27.87;32.27
71523;HTU21D;59343;51.102;5.884;2023-06-14T16:52:18;27.98;32.44
71523;HTU21D;59343;51.102;5.884;2023-06-14T16:54:53;27.98;32.23
71523;HTU21D;59343;51.102;5.884;2023-06-14T16:57:25;27.98;32.40
71523;HTU21D;59343;51.102;5.884;2023-06-14T17:00:03;27.95;32.54
71523;HTU21D;59343;51.102;5.884;2023-06-14T17:02:56;27.94;32.60
71523;HTU21D;59343;51.102;5.884;2023-06-14T17:05:23;27.89;32.63
71523;HTU21D;59343;51.102;5.884;2023-06-14T17:07:54;27.73;32.76
71523;HTU21D;59343;51.102;5.884;2023-06-14T17:10:21;27.58;33.17
71523;HTU21D;59343;51.102;5.884;2023-06-14T17:12:47;27.52;33.34
71523;HTU21D;59343;51.102;5.884;2023-06-14T17:15:28;27.45;33.50
71523;HTU21D;59343;51.102;5.884;2023-06-14T17:17:57;27.49;33.60
71523;HTU21D;59343;51.102;5.884;2023-06-14T17:20:23;27.54;33.53
71523;HTU21D;59343;51.102;5.884;2023-06-14T17:22:55;27.56;33.71
71523;HTU21D;59343;51.102;5.884;2023-06-14T17:25:24;27.63;33.47
71523;HTU21D;59343;51.102;5.884;2023-06-14T17:27:55;27.58;33.15
71523;HTU21D;59343;51.102;5.884;2023-06-14T17:30:21;27.55;33.12
71523;HTU21D;59343;51.102;5.884;2023-06-14T17:32:47;27.51;33.21
71523;HTU21D;59343;51.102;5.884;2023-06-14T17:35:13;27.44;33.33
71523;HTU21D;59343;51.102;5.884;2023-06-14T17:37:40;27.37;33.44
71523;HTU21D;59343;51.102;5.884;2023-06-14T17:40:07;27.28;33.60
71523;HTU21D;59343;51.102;5.884;2023-06-14T17:42:33;27.28;33.67
71523;HTU21D;59343;51.102;5.884;2023-06-14T17:44:59;27.30;33.89
71523;HTU21D;59343;51.102;5.884;2023-06-14T17:47:25;27.34;33.73
71523;HTU21D;59343;51.102;5.884;2023-06-14T17:49:51;27.31;33.91
71523;HTU21D;59343;51.102;5.884;2023-06-14T17:52:23;27.28;33.80
71523;HTU21D;59343;51.102;5.884;2023-06-14T17:54:49;27.19;33.82
71523;HTU21D;59343;51.102;5.884;2023-06-14T17:57:15;27.14;33.99
71523;HTU21D;59343;51.102;5.884;2023-06-14T17:59:42;27.13;34.06
71523;HTU21D;59343;51.102;5.884;2023-06-14T18:02:08;27.07;33.92
71523;HTU21D;59343;51.102;5.884;2023-06-14T18:04:34;26.98;34.19
71523;HTU21D;59343;51.102;5.884;2023-06-14T18:07:00;26.98;34.73
71523;HTU21D;59343;51.102;5.884;2023-06-14T18:09:27;26.97;34.57
71523;HTU21D;59343;51.102;5.884;2023-06-14T18:11:53;26.92;34.49
71523;HTU21D;59343;51.102;5.884;2023-06-14T18:14:19;26.81;34.30
71523;HTU21D;59343;51.102;5.884;2023-06-14T18:16:45;26.66;34.44
71523;HTU21D;59343;51.102;5.884;2023-06-14T18:19:11;26.58;34.61
71523;HTU21D;59343;51.102;5.884;2023-06-14T18:21:43;26.47;34.88
71523;HTU21D;59343;51.102;5.884;2023-06-14T18:24:09;26.47;35.08
71523;HTU21D;59343;51.102;5.884;2023-06-14T18:26:36;26.48;35.09
71523;HTU21D;59343;51.102;5.884;2023-06-14T18:29:03;26.41;35.02
71523;HTU21D;59343;51.102;5.884;2023-06-14T18:31:29;26.32;35.11
71523;HTU21D;59343;51.102;5.884;2023-06-14T18:33:56;26.30;35.27
71523;HTU21D;59343;51.102;5.884;2023-06-14T18:36:24;26.31;35.33
71523;HTU21D;59343;51.102;5.884;2023-06-14T18:38:50;26.32;35.31
71523;HTU21D;59343;51.102;5.884;2023-06-14T18:41:16;26.28;35.18
71523;HTU21D;59343;51.102;5.884;2023-06-14T18:43:42;26.27;35.18
71523;HTU21D;59343;51.102;5.884;2023-06-14T18:46:11;26.26;35.22
71523;HTU21D;59343;51.102;5.884;2023-06-14T18:48:38;26.22;35.21
71523;HTU21D;59343;51.102;5.884;2023-06-14T18:51:04;26.12;35.31
71523;HTU21D;59343;51.102;5.884;2023-06-14T18:53:30;26.02;35.42
71523;HTU21D;59343;51.102;5.884;2023-06-14T18:55:55;25.94;35.54
71523;HTU21D;59343;51.102;5.884;2023-06-14T18:58:21;25.89;35.69
71523;HTU21D;59343;51.102;5.884;2023-06-14T19:00:48;25.87;35.94
71523;HTU21D;59343;51.102;5.884;2023-06-14T19:03:14;25.83;36.01
71523;HTU21D;59343;51.102;5.884;2023-06-14T19:05:42;25.81;36.24
71523;HTU21D;59343;51.102;5.884;2023-06-14T19:08:08;25.77;36.30
71523;HTU21D;59343;51.102;5.884;2023-06-14T19:10:35;25.78;36.44
71523;HTU21D;59343;51.102;5.884;2023-06-14T19:13:01;25.77;36.37
71523;HTU21D;59343;51.102;5.884;2023-06-14T19:15:27;25.74;36.50
71523;HTU21D;59343;51.102;5.884;2023-06-14T19:18:00;25.72;36.36
71523;HTU21D;59343;51.102;5.884;2023-06-14T19:20:27;25.69;36.39
71523;HTU21D;59343;51.102;5.884;2023-06-14T19:22:53;25.65;36.44
71523;HTU21D;59343;51.102;5.884;2023-06-14T19:25:19;25.58;36.43
71523;HTU21D;59343;51.102;5.884;2023-06-14T19:27:49;25.47;36.50
71523;HTU21D;59343;51.102;5.884;2023-06-14T19:30:15;25.38;36.59
71523;HTU21D;59343;51.102;5.884;2023-06-14T19:32:42;25.34;36.72
71523;HTU21D;59343;51.102;5.884;2023-06-14T19:35:09;25.27;36.73
71523;HTU21D;59343;51.102;5.884;2023-06-14T19:37:36;25.20;36.73
71523;HTU21D;59343;51.102;5.884;2023-06-14T19:40:03;25.14;36.84
71523;HTU21D;59343;51.102;5.884;2023-06-14T19:42:29;25.13;36.96
71523;HTU21D;59343;51.102;5.884;2023-06-14T19:44:55;25.08;36.88
71523;HTU21D;59343;51.102;5.884;2023-06-14T19:47:22;25.04;37.07
71523;HTU21D;59343;51.102;5.884;2023-06-14T19:49:48;25.04;37.20
71523;HTU21D;59343;51.102;5.884;2023-06-14T19:52:14;25.01;37.29
71523;HTU21D;59343;51.102;5.884;2023-06-14T19:54:40;24.97;37.32
71523;HTU21D;59343;51.102;5.884;2023-06-14T19:57:06;24.93;37.40
71523;HTU21D;59343;51.102;5.884;2023-06-14T19:59:32;24.88;37.42
71523;HTU21D;59343;51.102;5.884;2023-06-14T20:03:51;24.74;37.58
71523;HTU21D;59343;51.102;5.884;2023-06-14T20:06:17;24.66;37.62
71523;HTU21D;59343;51.102;5.884;2023-06-14T20:08:46;24.60;37.77
71523;HTU21D;59343;51.102;5.884;2023-06-14T20:11:13;24.58;37.97
71523;HTU21D;59343;51.102;5.884;2023-06-14T20:13:41;24.58;38.13
71523;HTU21D;59343;51.102;5.884;2023-06-14T20:16:07;24.53;37.98
71523;HTU21D;59343;51.102;5.884;2023-06-14T20:18:33;24.48;38.18
71523;HTU21D;59343;51.102;5.884;2023-06-14T20:20:59;24.44;38.14
71523;HTU21D;59343;51.102;5.884;2023-06-14T20:23:26;24.40;38.21
71523;HTU21D;59343;51.102;5.884;2023-06-14T20:25:52;24.38;38.36
71523;HTU21D;59343;51.102;5.884;2023-06-14T20:28:18;24.34;38.46
71523;HTU21D;59343;51.102;5.884;2023-06-14T20:30:44;24.29;38.46
71523;HTU21D;59343;51.102;5.884;2023-06-14T20:33:10;24.24;38.59
71523;HTU21D;59343;51.102;5.884;2023-06-14T20:35:35;24.19;38.69
71523;HTU21D;59343;51.102;5.884;2023-06-14T20:38:02;24.16;38.88
71523;HTU21D;59343;51.102;5.884;2023-06-14T20:40:28;24.13;39.04
71523;HTU21D;59343;51.102;5.884;2023-06-14T20:42:54;24.12;39.26
71523;HTU21D;59343;51.102;5.884;2023-06-14T20:45:25;24.12;39.32
71523;HTU21D;59343;51.102;5.884;2023-06-14T20:47:51;24.11;39.30
71523;HTU21D;59343;51.102;5.884;2023-06-14T20:50:18;24.12;39.62
71523;HTU21D;59343;51.102;5.884;2023-06-14T20:52:45;24.06;39.47
71523;HTU21D;59343;51.102;5.884;2023-06-14T20:55:12;24.02;39.66
71523;HTU21D;59343;51.102;5.884;2023-06-14T20:57:37;23.99;39.80
71523;HTU21D;59343;51.102;5.884;2023-06-14T21:00:04;24.00;40.12
71523;HTU21D;59343;51.102;5.884;2023-06-14T21:02:37;23.96;39.98
71523;HTU21D;59343;51.102;5.884;2023-06-14T21:05:04;23.87;40.06
71523;HTU21D;59343;51.102;5.884;2023-06-14T21:07:31;23.80;40.23
71523;HTU21D;59343;51.102;5.884;2023-06-14T21:09:56;23.74;40.38
71523;HTU21D;59343;51.102;5.884;2023-06-14T21:12:22;23.66;40.42
71523;HTU21D;59343;51.102;5.884;2023-06-14T21:14:48;23.64;40.57
71523;HTU21D;59343;51.102;5.884;2023-06-14T21:17:14;23.60;40.69
71523;HTU21D;59343;51.102;5.884;2023-06-14T21:19:40;23.61;41.06
71523;HTU21D;59343;51.102;5.884;2023-06-14T21:22:07;23.59;41.15
71523;HTU21D;59343;51.102;5.884;2023-06-14T21:24:36;23.56;41.13
71523;HTU21D;59343;51.102;5.884;2023-06-14T21:27:02;23.53;41.16
71523;HTU21D;59343;51.102;5.884;2023-06-14T21:29:28;23.49;41.36
71523;HTU21D;59343;51.102;5.884;2023-06-14T21:31:54;23.47;41.73
71523;HTU21D;59343;51.102;5.884;2023-06-14T21:34:21;23.49;41.67
71523;HTU21D;59343;51.102;5.884;2023-06-14T21:36:48;23.45;41.76
71523;HTU21D;59343;51.102;5.884;2023-06-14T21:39:18;23.41;42.19
71523;HTU21D;59343;51.102;5.884;2023-06-14T21:41:47;23.41;42.26
71523;HTU21D;59343;51.102;5.884;2023-06-14T21:44:13;23.39;42.13
71523;HTU21D;59343;51.102;5.884;2023-06-14T21:46:38;23.38;42.42
71523;HTU21D;59343;51.102;5.884;2023-06-14T21:49:04;23.38;42.35
71523;HTU21D;59343;51.102;5.884;2023-06-14T21:51:30;23.37;42.68
71523;HTU21D;59343;51.102;5.884;2023-06-14T21:53:56;23.37;43.16
71523;HTU21D;59343;51.102;5.884;2023-06-14T21:56:22;23.37;43.09
71523;HTU21D;59343;51.102;5.884;2023-06-14T21:58:49;23.32;42.84
71523;HTU21D;59343;51.102;5.884;2023-06-14T22:01:15;23.29;43.00
71523;HTU21D;59343;51.102;5.884;2023-06-14T22:03:41;23.24;42.97
71523;HTU21D;59343;51.102;5.884;2023-06-14T22:06:07;23.15;43.10
71523;HTU21D;59343;51.102;5.884;2023-06-14T22:08:34;23.06;43.11
71523;HTU21D;59343;51.102;5.884;2023-06-14T22:11:00;22.99;43.30
71523;HTU21D;59343;51.102;5.884;2023-06-14T22:13:38;22.94;43.77
71523;HTU21D;59343;51.102;5.884;2023-06-14T22:16:07;22.90;43.80
71523;HTU21D;59343;51.102;5.884;2023-06-14T22:18:34;22.85;43.96
71523;HTU21D;59343;51.102;5.884;2023-06-14T22:21:00;22.83;44.18
71523;HTU21D;59343;51.102;5.884;2023-06-14T22:23:26;22.83;44.32
71523;HTU21D;59343;51.102;5.884;2023-06-14T22:26:29;22.83;44.53
71523;HTU21D;59343;51.102;5.884;2023-06-14T22:28:59;22.80;44.68
71523;HTU21D;59343;51.102;5.884;2023-06-14T22:31:32;22.78;44.65
71523;HTU21D;59343;51.102;5.884;2023-06-14T22:34:03;22.76;44.83
71523;HTU21D;59343;51.102;5.884;2023-06-14T22:36:29;22.71;44.92
71523;HTU21D;59343;51.102;5.884;2023-06-14T22:38:55;22.68;45.21
71523;HTU21D;59343;51.102;5.884;2023-06-14T22:41:29;22.67;45.57
71523;HTU21D;59343;51.102;5.884;2023-06-14T22:43:58;22.64;45.40
71523;HTU21D;59343;51.102;5.884;2023-06-14T22:46:24;22.58;45.45
71523;HTU21D;59343;51.102;5.884;2023-06-14T22:48:51;22.55;45.44
71523;HTU21D;59343;51.102;5.884;2023-06-14T22:51:20;22.52;45.89